sensor_id;sensor_type;location;lat;lon;timestamp;P1;durP1;ratioP1;P2;durP2;ratioP2
44068;SDS011;29738;51.234;5.484;2023-02-24T00:01:47;15.10;;;2.80;;
44068;SDS011;29738;51.234;5.484;2023-02-24T00:04:17;15.27;;;2.60;;
44068;SDS011;29738;51.234;5.484;2023-02-24T00:06:44;5.60;;;1.83;;
44068;SDS011;29738;51.234;5.484;2023-02-24T00:09:12;12.38;;;2.30;;
44068;SDS011;29738;51.234;5.484;2023-02-24T00:11:55;9.95;;;2.13;;
44068;SDS011;29738;51.234;5.484;2023-02-24T00:14:24;7.95;;;2.00;;
44068;SDS011;29738;51.234;5.484;2023-02-24T00:16:52;15.40;;;2.40;;
44068;SDS011;29738;51.234;5.484;2023-02-24T00:19:22;11.90;;;2.28;;
44068;SDS011;29738;51.234;5.484;2023-02-24T00:21:49;11.18;;;1.92;;
44068;SDS011;29738;51.234;5.484;2023-02-24T00:24:16;8.57;;;2.35;;
44068;SDS011;29738;51.234;5.484;2023-02-24T00:26:42;8.48;;;1.75;;
44068;SDS011;29738;51.234;5.484;2023-02-24T00:29:10;15.70;;;2.70;;
44068;SDS011;29738;51.234;5.484;2023-02-24T00:31:37;9.00;;;2.38;;
44068;SDS011;29738;51.234;5.484;2023-02-24T00:34:06;6.63;;;2.15;;
44068;SDS011;29738;51.234;5.484;2023-02-24T00:36:32;7.57;;;1.67;;
44068;SDS011;29738;51.234;5.484;2023-02-24T00:39:03;8.65;;;1.77;;
44068;SDS011;29738;51.234;5.484;2023-02-24T00:41:37;12.50;;;2.33;;
44068;SDS011;29738;51.234;5.484;2023-02-24T00:44:05;8.20;;;2.15;;
44068;SDS011;29738;51.234;5.484;2023-02-24T00:46:36;7.00;;;2.92;;
44068;SDS011;29738;51.234;5.484;2023-02-24T00:49:08;15.73;;;2.72;;
44068;SDS011;29738;51.234;5.484;2023-02-24T00:51:41;8.52;;;2.25;;
44068;SDS011;29738;51.234;5.484;2023-02-24T00:54:08;15.55;;;3.58;;
44068;SDS011;29738;51.234;5.484;2023-02-24T00:56:42;12.80;;;2.45;;
44068;SDS011;29738;51.234;5.484;2023-02-24T00:59:10;7.43;;;2.58;;
44068;SDS011;29738;51.234;5.484;2023-02-24T01:01:37;10.82;;;2.72;;
44068;SDS011;29738;51.234;5.484;2023-02-24T01:04:05;7.57;;;2.30;;
44068;SDS011;29738;51.234;5.484;2023-02-24T01:06:36;15.03;;;3.03;;
44068;SDS011;29738;51.234;5.484;2023-02-24T01:09:10;12.77;;;2.55;;
44068;SDS011;29738;51.234;5.484;2023-02-24T01:11:39;13.00;;;2.50;;
44068;SDS011;29738;51.234;5.484;2023-02-24T01:14:26;9.70;;;2.08;;
44068;SDS011;29738;51.234;5.484;2023-02-24T01:16:53;15.35;;;2.45;;
44068;SDS011;29738;51.234;5.484;2023-02-24T01:19:22;9.95;;;2.60;;
44068;SDS011;29738;51.234;5.484;2023-02-24T01:21:54;12.30;;;2.58;;
44068;SDS011;29738;51.234;5.484;2023-02-24T01:24:22;8.63;;;2.28;;
44068;SDS011;29738;51.234;5.484;2023-02-24T01:26:50;5.80;;;2.35;;
44068;SDS011;29738;51.234;5.484;2023-02-24T01:29:17;17.15;;;2.22;;
44068;SDS011;29738;51.234;5.484;2023-02-24T01:31:43;12.40;;;2.88;;
44068;SDS011;29738;51.234;5.484;2023-02-24T01:34:09;13.05;;;3.47;;
44068;SDS011;29738;51.234;5.484;2023-02-24T01:36:38;7.88;;;1.90;;
44068;SDS011;29738;51.234;5.484;2023-02-24T01:39:07;6.72;;;1.85;;
44068;SDS011;29738;51.234;5.484;2023-02-24T01:41:35;10.98;;;2.58;;
44068;SDS011;29738;51.234;5.484;2023-02-24T01:46:39;9.10;;;2.30;;
44068;SDS011;29738;51.234;5.484;2023-02-24T01:49:08;16.05;;;2.80;;
44068;SDS011;29738;51.234;5.484;2023-02-24T01:51:37;6.00;;;1.85;;
44068;SDS011;29738;51.234;5.484;2023-02-24T01:56:37;6.35;;;2.50;;
44068;SDS011;29738;51.234;5.484;2023-02-24T01:59:05;10.38;;;2.70;;
44068;SDS011;29738;51.234;5.484;2023-02-24T02:01:33;8.10;;;2.53;;
44068;SDS011;29738;51.234;5.484;2023-02-24T02:04:06;5.93;;;2.28;;
44068;SDS011;29738;51.234;5.484;2023-02-24T02:06:44;12.35;;;2.63;;
44068;SDS011;29738;51.234;5.484;2023-02-24T02:09:12;9.70;;;2.53;;
44068;SDS011;29738;51.234;5.484;2023-02-24T02:11:40;10.25;;;2.67;;
44068;SDS011;29738;51.234;5.484;2023-02-24T02:14:06;8.90;;;2.03;;
44068;SDS011;29738;51.234;5.484;2023-02-24T02:25:19;13.18;;;2.63;;
44068;SDS011;29738;51.234;5.484;2023-02-24T02:28:01;5.95;;;2.42;;
44068;SDS011;29738;51.234;5.484;2023-02-24T02:36:32;5.72;;;1.70;;
44068;SDS011;29738;51.234;5.484;2023-02-24T02:41:57;11.60;;;2.30;;
44068;SDS011;29738;51.234;5.484;2023-02-24T02:44:44;9.40;;;2.33;;
44068;SDS011;29738;51.234;5.484;2023-02-24T02:49:54;11.05;;;2.63;;
44068;SDS011;29738;51.234;5.484;2023-02-24T02:52:46;10.00;;;2.70;;
44068;SDS011;29738;51.234;5.484;2023-02-24T02:58:20;7.97;;;2.25;;
44068;SDS011;29738;51.234;5.484;2023-02-24T03:00:54;11.77;;;2.45;;
44068;SDS011;29738;51.234;5.484;2023-02-24T03:03:27;7.00;;;2.55;;
44068;SDS011;29738;51.234;5.484;2023-02-24T03:06:09;7.90;;;2.47;;
44068;SDS011;29738;51.234;5.484;2023-02-24T03:08:43;13.13;;;2.95;;
44068;SDS011;29738;51.234;5.484;2023-02-24T03:11:24;10.38;;;2.38;;
44068;SDS011;29738;51.234;5.484;2023-02-24T03:13:51;10.00;;;2.33;;
44068;SDS011;29738;51.234;5.484;2023-02-24T03:16:21;8.93;;;2.05;;
44068;SDS011;29738;51.234;5.484;2023-02-24T03:18:57;9.68;;;2.40;;
44068;SDS011;29738;51.234;5.484;2023-02-24T03:23:53;5.40;;;2.00;;
44068;SDS011;29738;51.234;5.484;2023-02-24T03:28:52;8.98;;;2.60;;
44068;SDS011;29738;51.234;5.484;2023-02-24T03:31:46;8.05;;;2.90;;
44068;SDS011;29738;51.234;5.484;2023-02-24T03:37:03;9.32;;;2.42;;
44068;SDS011;29738;51.234;5.484;2023-02-24T03:39:29;8.05;;;2.30;;
44068;SDS011;29738;51.234;5.484;2023-02-24T03:42:00;10.32;;;2.55;;
44068;SDS011;29738;51.234;5.484;2023-02-24T03:44:35;9.18;;;2.30;;
44068;SDS011;29738;51.234;5.484;2023-02-24T03:47:01;14.55;;;2.55;;
44068;SDS011;29738;51.234;5.484;2023-02-24T03:49:28;10.18;;;2.53;;
44068;SDS011;29738;51.234;5.484;2023-02-24T03:52:11;11.18;;;2.60;;
44068;SDS011;29738;51.234;5.484;2023-02-24T03:54:59;11.45;;;2.75;;
44068;SDS011;29738;51.234;5.484;2023-02-24T04:00:09;7.78;;;2.40;;
44068;SDS011;29738;51.234;5.484;2023-02-24T04:02:52;8.68;;;2.00;;
44068;SDS011;29738;51.234;5.484;2023-02-24T04:05:28;7.47;;;2.90;;
44068;SDS011;29738;51.234;5.484;2023-02-24T04:08:05;7.18;;;2.47;;
44068;SDS011;29738;51.234;5.484;2023-02-24T04:10:49;7.03;;;1.75;;
44068;SDS011;29738;51.234;5.484;2023-02-24T04:16:08;11.93;;;2.42;;
44068;SDS011;29738;51.234;5.484;2023-02-24T04:18:41;9.80;;;2.47;;
44068;SDS011;29738;51.234;5.484;2023-02-24T04:21:12;10.80;;;3.58;;
44068;SDS011;29738;51.234;5.484;2023-02-24T04:23:41;8.25;;;2.40;;
44068;SDS011;29738;51.234;5.484;2023-02-24T04:26:09;6.07;;;1.90;;
44068;SDS011;29738;51.234;5.484;2023-02-24T04:28:40;9.80;;;2.03;;
44068;SDS011;29738;51.234;5.484;2023-02-24T04:31:08;9.25;;;1.95;;
44068;SDS011;29738;51.234;5.484;2023-02-24T04:33:41;15.30;;;3.08;;
44068;SDS011;29738;51.234;5.484;2023-02-24T04:36:08;7.57;;;2.47;;
44068;SDS011;29738;51.234;5.484;2023-02-24T04:38:36;7.75;;;2.28;;
44068;SDS011;29738;51.234;5.484;2023-02-24T04:41:03;5.90;;;2.05;;
44068;SDS011;29738;51.234;5.484;2023-02-24T04:43:29;8.50;;;2.00;;
44068;SDS011;29738;51.234;5.484;2023-02-24T04:45:55;6.15;;;1.70;;
44068;SDS011;29738;51.234;5.484;2023-02-24T04:48:21;10.07;;;2.28;;
44068;SDS011;29738;51.234;5.484;2023-02-24T04:50:47;5.13;;;2.20;;
44068;SDS011;29738;51.234;5.484;2023-02-24T04:53:19;13.70;;;2.28;;
44068;SDS011;29738;51.234;5.484;2023-02-24T04:55:52;7.82;;;1.90;;
44068;SDS011;29738;51.234;5.484;2023-02-24T04:58:19;4.13;;;1.63;;
44068;SDS011;29738;51.234;5.484;2023-02-24T05:00:47;9.85;;;2.28;;
44068;SDS011;29738;51.234;5.484;2023-02-24T05:03:16;6.60;;;2.00;;
44068;SDS011;29738;51.234;5.484;2023-02-24T05:05:49;8.90;;;1.90;;
44068;SDS011;29738;51.234;5.484;2023-02-24T05:08:20;8.32;;;2.03;;
44068;SDS011;29738;51.234;5.484;2023-02-24T05:10:46;6.35;;;1.85;;
44068;SDS011;29738;51.234;5.484;2023-02-24T05:13:14;6.40;;;2.15;;
44068;SDS011;29738;51.234;5.484;2023-02-24T05:15:42;10.52;;;2.33;;
44068;SDS011;29738;51.234;5.484;2023-02-24T05:18:10;10.63;;;2.30;;
44068;SDS011;29738;51.234;5.484;2023-02-24T05:20:48;5.03;;;1.88;;
44068;SDS011;29738;51.234;5.484;2023-02-24T05:23:34;5.18;;;2.33;;
44068;SDS011;29738;51.234;5.484;2023-02-24T05:26:08;6.00;;;1.73;;
44068;SDS011;29738;51.234;5.484;2023-02-24T05:28:38;4.65;;;1.30;;
44068;SDS011;29738;51.234;5.484;2023-02-24T05:33:39;6.78;;;1.92;;
44068;SDS011;29738;51.234;5.484;2023-02-24T05:36:10;6.68;;;1.55;;
44068;SDS011;29738;51.234;5.484;2023-02-24T05:38:42;12.52;;;2.28;;
44068;SDS011;29738;51.234;5.484;2023-02-24T05:41:10;12.40;;;1.75;;
44068;SDS011;29738;51.234;5.484;2023-02-24T05:43:48;5.22;;;2.00;;
44068;SDS011;29738;51.234;5.484;2023-02-24T05:46:19;6.13;;;1.85;;
44068;SDS011;29738;51.234;5.484;2023-02-24T05:49:02;5.53;;;1.83;;
44068;SDS011;29738;51.234;5.484;2023-02-24T05:51:33;11.05;;;2.55;;
44068;SDS011;29738;51.234;5.484;2023-02-24T05:54:04;6.70;;;2.00;;
44068;SDS011;29738;51.234;5.484;2023-02-24T05:56:33;5.33;;;2.27;;
44068;SDS011;29738;51.234;5.484;2023-02-24T05:59:01;7.55;;;2.80;;
44068;SDS011;29738;51.234;5.484;2023-02-24T06:01:29;5.55;;;2.80;;
44068;SDS011;29738;51.234;5.484;2023-02-24T06:04:01;8.10;;;2.97;;
44068;SDS011;29738;51.234;5.484;2023-02-24T06:06:39;10.70;;;3.25;;
44068;SDS011;29738;51.234;5.484;2023-02-24T06:09:07;14.38;;;4.50;;
44068;SDS011;29738;51.234;5.484;2023-02-24T06:11:37;8.95;;;2.55;;
44068;SDS011;29738;51.234;5.484;2023-02-24T06:14:06;7.00;;;3.00;;
44068;SDS011;29738;51.234;5.484;2023-02-24T06:16:36;7.60;;;2.50;;
44068;SDS011;29738;51.234;5.484;2023-02-24T06:19:08;8.73;;;2.83;;
44068;SDS011;29738;51.234;5.484;2023-02-24T06:21:36;10.25;;;2.53;;
44068;SDS011;29738;51.234;5.484;2023-02-24T06:24:05;4.28;;;2.00;;
44068;SDS011;29738;51.234;5.484;2023-02-24T06:26:42;8.60;;;2.17;;
44068;SDS011;29738;51.234;5.484;2023-02-24T06:29:15;9.43;;;3.83;;
44068;SDS011;29738;51.234;5.484;2023-02-24T06:31:42;23.63;;;10.27;;
44068;SDS011;29738;51.234;5.484;2023-02-24T06:34:12;18.92;;;7.72;;
44068;SDS011;29738;51.234;5.484;2023-02-24T06:36:39;6.30;;;3.20;;
44068;SDS011;29738;51.234;5.484;2023-02-24T06:39:05;7.07;;;2.90;;
44068;SDS011;29738;51.234;5.484;2023-02-24T06:41:37;5.95;;;2.10;;
44068;SDS011;29738;51.234;5.484;2023-02-24T06:44:03;5.47;;;1.92;;
44068;SDS011;29738;51.234;5.484;2023-02-24T06:46:29;42.80;;;33.88;;
44068;SDS011;29738;51.234;5.484;2023-02-24T06:48:56;15.98;;;10.43;;
44068;SDS011;29738;51.234;5.484;2023-02-24T06:51:24;18.42;;;8.75;;
44068;SDS011;29738;51.234;5.484;2023-02-24T06:53:54;8.63;;;3.97;;
44068;SDS011;29738;51.234;5.484;2023-02-24T06:56:21;13.50;;;4.38;;
44068;SDS011;29738;51.234;5.484;2023-02-24T06:58:48;12.60;;;3.20;;
44068;SDS011;29738;51.234;5.484;2023-02-24T07:01:20;10.93;;;4.63;;
44068;SDS011;29738;51.234;5.484;2023-02-24T07:03:50;9.90;;;5.45;;
44068;SDS011;29738;51.234;5.484;2023-02-24T07:06:35;10.05;;;3.08;;
44068;SDS011;29738;51.234;5.484;2023-02-24T07:09:03;7.78;;;3.10;;
44068;SDS011;29738;51.234;5.484;2023-02-24T07:11:31;7.80;;;2.67;;
44068;SDS011;29738;51.234;5.484;2023-02-24T07:13:58;11.50;;;3.25;;
44068;SDS011;29738;51.234;5.484;2023-02-24T07:16:24;12.68;;;3.80;;
44068;SDS011;29738;51.234;5.484;2023-02-24T07:19:00;15.32;;;5.80;;
44068;SDS011;29738;51.234;5.484;2023-02-24T07:21:27;7.63;;;3.85;;
44068;SDS011;29738;51.234;5.484;2023-02-24T07:23:55;7.35;;;4.30;;
44068;SDS011;29738;51.234;5.484;2023-02-24T07:26:22;8.20;;;4.72;;
44068;SDS011;29738;51.234;5.484;2023-02-24T07:28:50;13.07;;;5.50;;
44068;SDS011;29738;51.234;5.484;2023-02-24T07:31:19;15.52;;;8.13;;
44068;SDS011;29738;51.234;5.484;2023-02-24T07:33:48;19.02;;;6.53;;
44068;SDS011;29738;51.234;5.484;2023-02-24T07:36:17;14.00;;;6.35;;
44068;SDS011;29738;51.234;5.484;2023-02-24T07:38:47;15.65;;;5.13;;
44068;SDS011;29738;51.234;5.484;2023-02-24T07:41:16;13.70;;;6.95;;
44068;SDS011;29738;51.234;5.484;2023-02-24T07:43:46;13.10;;;6.28;;
44068;SDS011;29738;51.234;5.484;2023-02-24T07:46:15;8.73;;;4.00;;
44068;SDS011;29738;51.234;5.484;2023-02-24T07:48:48;12.25;;;5.72;;
44068;SDS011;29738;51.234;5.484;2023-02-24T07:51:16;17.38;;;5.50;;
44068;SDS011;29738;51.234;5.484;2023-02-24T07:53:47;10.02;;;3.35;;
44068;SDS011;29738;51.234;5.484;2023-02-24T07:56:17;9.65;;;4.95;;
44068;SDS011;29738;51.234;5.484;2023-02-24T07:58:47;10.98;;;4.65;;
44068;SDS011;29738;51.234;5.484;2023-02-24T08:01:21;8.75;;;4.05;;
44068;SDS011;29738;51.234;5.484;2023-02-24T08:03:50;8.52;;;3.65;;
44068;SDS011;29738;51.234;5.484;2023-02-24T08:06:20;10.25;;;4.22;;
44068;SDS011;29738;51.234;5.484;2023-02-24T08:08:55;8.68;;;3.42;;
44068;SDS011;29738;51.234;5.484;2023-02-24T08:11:40;8.18;;;4.05;;
44068;SDS011;29738;51.234;5.484;2023-02-24T08:14:20;12.40;;;3.42;;
44068;SDS011;29738;51.234;5.484;2023-02-24T08:16:48;41.07;;;28.07;;
44068;SDS011;29738;51.234;5.484;2023-02-24T08:19:24;16.88;;;9.82;;
44068;SDS011;29738;51.234;5.484;2023-02-24T08:22:03;263.80;;;115.85;;
44068;SDS011;29738;51.234;5.484;2023-02-24T08:24:53;131.23;;;66.85;;
44068;SDS011;29738;51.234;5.484;2023-02-24T08:27:25;216.88;;;97.25;;
44068;SDS011;29738;51.234;5.484;2023-02-24T08:29:56;257.20;;;110.18;;
44068;SDS011;29738;51.234;5.484;2023-02-24T08:32:33;70.43;;;38.95;;
44068;SDS011;29738;51.234;5.484;2023-02-24T08:35:05;24.90;;;15.05;;
44068;SDS011;29738;51.234;5.484;2023-02-24T08:37:38;16.67;;;5.63;;
44068;SDS011;29738;51.234;5.484;2023-02-24T08:40:11;6.90;;;3.80;;
44068;SDS011;29738;51.234;5.484;2023-02-24T08:43:07;12.70;;;3.37;;
44068;SDS011;29738;51.234;5.484;2023-02-24T08:46:15;8.90;;;2.97;;
44068;SDS011;29738;51.234;5.484;2023-02-24T08:48:52;8.70;;;3.35;;
44068;SDS011;29738;51.234;5.484;2023-02-24T08:51:23;6.68;;;2.72;;
44068;SDS011;29738;51.234;5.484;2023-02-24T08:56:25;7.35;;;3.15;;
44068;SDS011;29738;51.234;5.484;2023-02-24T08:58:56;9.13;;;2.35;;
44068;SDS011;29738;51.234;5.484;2023-02-24T09:01:29;6.90;;;2.70;;
44068;SDS011;29738;51.234;5.484;2023-02-24T09:04:03;6.55;;;2.97;;
44068;SDS011;29738;51.234;5.484;2023-02-24T09:06:48;8.13;;;2.85;;
44068;SDS011;29738;51.234;5.484;2023-02-24T09:09:16;11.23;;;3.05;;
44068;SDS011;29738;51.234;5.484;2023-02-24T09:11:50;5.40;;;2.00;;
44068;SDS011;29738;51.234;5.484;2023-02-24T09:14:22;13.82;;;2.85;;
44068;SDS011;29738;51.234;5.484;2023-02-24T09:16:50;6.65;;;2.72;;
44068;SDS011;29738;51.234;5.484;2023-02-24T09:22:12;5.88;;;2.63;;
44068;SDS011;29738;51.234;5.484;2023-02-24T09:25:10;4.80;;;2.25;;
44068;SDS011;29738;51.234;5.484;2023-02-24T09:27:45;11.25;;;2.47;;
44068;SDS011;29738;51.234;5.484;2023-02-24T09:30:26;8.23;;;2.38;;
44068;SDS011;29738;51.234;5.484;2023-02-24T09:33:25;8.93;;;2.33;;
44068;SDS011;29738;51.234;5.484;2023-02-24T09:38:49;4.50;;;2.05;;
44068;SDS011;29738;51.234;5.484;2023-02-24T09:43:57;5.07;;;1.83;;
44068;SDS011;29738;51.234;5.484;2023-02-24T09:46:28;9.20;;;2.15;;
44068;SDS011;29738;51.234;5.484;2023-02-24T09:49:01;8.88;;;1.88;;
44068;SDS011;29738;51.234;5.484;2023-02-24T09:51:41;8.60;;;2.35;;
44068;SDS011;29738;51.234;5.484;2023-02-24T09:54:12;11.13;;;2.58;;
44068;SDS011;29738;51.234;5.484;2023-02-24T09:56:41;9.82;;;2.50;;
44068;SDS011;29738;51.234;5.484;2023-02-24T09:59:54;6.65;;;2.42;;
44068;SDS011;29738;51.234;5.484;2023-02-24T10:02:56;5.63;;;1.80;;
44068;SDS011;29738;51.234;5.484;2023-02-24T10:05:52;6.55;;;2.28;;
44068;SDS011;29738;51.234;5.484;2023-02-24T10:08:28;4.93;;;1.85;;
44068;SDS011;29738;51.234;5.484;2023-02-24T10:10:58;7.70;;;2.10;;
44068;SDS011;29738;51.234;5.484;2023-02-24T10:13:31;6.00;;;2.08;;
44068;SDS011;29738;51.234;5.484;2023-02-24T10:16:04;11.48;;;2.28;;
44068;SDS011;29738;51.234;5.484;2023-02-24T10:18:45;7.00;;;2.10;;
44068;SDS011;29738;51.234;5.484;2023-02-24T10:21:29;7.22;;;1.83;;
44068;SDS011;29738;51.234;5.484;2023-02-24T10:27:08;7.13;;;2.45;;
44068;SDS011;29738;51.234;5.484;2023-02-24T10:35:00;5.78;;;1.77;;
44068;SDS011;29738;51.234;5.484;2023-02-24T10:37:27;9.02;;;2.58;;
44068;SDS011;29738;51.234;5.484;2023-02-24T10:39:58;9.02;;;2.30;;
44068;SDS011;29738;51.234;5.484;2023-02-24T10:42:33;6.78;;;2.25;;
44068;SDS011;29738;51.234;5.484;2023-02-24T10:45:09;9.95;;;3.28;;
44068;SDS011;29738;51.234;5.484;2023-02-24T10:47:50;10.27;;;2.50;;
44068;SDS011;29738;51.234;5.484;2023-02-24T10:50:22;4.60;;;2.10;;
44068;SDS011;29738;51.234;5.484;2023-02-24T10:52:48;9.68;;;2.83;;
44068;SDS011;29738;51.234;5.484;2023-02-24T10:57:59;6.07;;;1.98;;
44068;SDS011;29738;51.234;5.484;2023-02-24T11:00:40;7.75;;;2.35;;
44068;SDS011;29738;51.234;5.484;2023-02-24T11:03:55;5.32;;;1.98;;
44068;SDS011;29738;51.234;5.484;2023-02-24T11:06:26;6.40;;;2.35;;
44068;SDS011;29738;51.234;5.484;2023-02-24T11:09:18;11.20;;;2.78;;
44068;SDS011;29738;51.234;5.484;2023-02-24T11:11:51;7.75;;;2.83;;
44068;SDS011;29738;51.234;5.484;2023-02-24T11:14:38;15.07;;;2.70;;
44068;SDS011;29738;51.234;5.484;2023-02-24T11:17:35;8.05;;;2.28;;
44068;SDS011;29738;51.234;5.484;2023-02-24T11:20:03;6.22;;;2.17;;
44068;SDS011;29738;51.234;5.484;2023-02-24T11:22:52;6.65;;;2.10;;
44068;SDS011;29738;51.234;5.484;2023-02-24T11:30:53;7.43;;;2.40;;
44068;SDS011;29738;51.234;5.484;2023-02-24T11:42:21;14.50;;;2.33;;
44068;SDS011;29738;51.234;5.484;2023-02-24T11:45:02;6.47;;;2.38;;
44068;SDS011;29738;51.234;5.484;2023-02-24T11:47:48;5.90;;;2.08;;
44068;SDS011;29738;51.234;5.484;2023-02-24T11:50:25;12.60;;;2.92;;
44068;SDS011;29738;51.234;5.484;2023-02-24T11:52:54;5.13;;;2.20;;
44068;SDS011;29738;51.234;5.484;2023-02-24T11:55:27;7.75;;;3.33;;
44068;SDS011;29738;51.234;5.484;2023-02-24T11:59:13;10.40;;;3.55;;
44068;SDS011;29738;51.234;5.484;2023-02-24T12:01:24;12.77;;;2.63;;
44068;SDS011;29738;51.234;5.484;2023-02-24T12:04:00;11.20;;;3.33;;
44068;SDS011;29738;51.234;5.484;2023-02-24T12:12:46;6.97;;;3.08;;
44068;SDS011;29738;51.234;5.484;2023-02-24T12:15:22;5.38;;;1.92;;
44068;SDS011;29738;51.234;5.484;2023-02-24T12:20:35;7.63;;;3.35;;
44068;SDS011;29738;51.234;5.484;2023-02-24T12:25:46;8.43;;;3.75;;
44068;SDS011;29738;51.234;5.484;2023-02-24T12:31:06;11.18;;;4.10;;
44068;SDS011;29738;51.234;5.484;2023-02-24T12:34:11;10.82;;;4.18;;
44068;SDS011;29738;51.234;5.484;2023-02-24T12:39:29;8.10;;;4.28;;
44068;SDS011;29738;51.234;5.484;2023-02-24T12:42:25;6.30;;;3.83;;
44068;SDS011;29738;51.234;5.484;2023-02-24T12:45:21;10.43;;;4.33;;
44068;SDS011;29738;51.234;5.484;2023-02-24T12:50:59;15.68;;;5.63;;
44068;SDS011;29738;51.234;5.484;2023-02-24T12:53:38;14.50;;;4.78;;
44068;SDS011;29738;51.234;5.484;2023-02-24T12:56:20;16.40;;;5.18;;
44068;SDS011;29738;51.234;5.484;2023-02-24T12:58:50;10.13;;;4.43;;
44068;SDS011;29738;51.234;5.484;2023-02-24T13:11:57;15.48;;;7.13;;
44068;SDS011;29738;51.234;5.484;2023-02-24T13:14:40;18.65;;;8.43;;
44068;SDS011;29738;51.234;5.484;2023-02-24T13:19:36;18.95;;;10.75;;
44068;SDS011;29738;51.234;5.484;2023-02-24T13:24:31;18.63;;;8.90;;
44068;SDS011;29738;51.234;5.484;2023-02-24T13:27:05;15.00;;;9.38;;
44068;SDS011;29738;51.234;5.484;2023-02-24T13:29:47;23.27;;;9.57;;
44068;SDS011;29738;51.234;5.484;2023-02-24T13:32:28;24.85;;;14.38;;
44068;SDS011;29738;51.234;5.484;2023-02-24T13:34:56;19.30;;;11.60;;
44068;SDS011;29738;51.234;5.484;2023-02-24T13:37:29;17.42;;;9.73;;
44068;SDS011;29738;51.234;5.484;2023-02-24T13:39:58;18.17;;;10.52;;
44068;SDS011;29738;51.234;5.484;2023-02-24T13:42:28;18.73;;;11.23;;
44068;SDS011;29738;51.234;5.484;2023-02-24T13:47:33;21.08;;;11.50;;
44068;SDS011;29738;51.234;5.484;2023-02-24T13:50:27;24.40;;;12.57;;
44068;SDS011;29738;51.234;5.484;2023-02-24T14:01:58;15.07;;;8.40;;
44068;SDS011;29738;51.234;5.484;2023-02-24T14:04:32;22.38;;;11.25;;
44068;SDS011;29738;51.234;5.484;2023-02-24T14:07:07;25.58;;;15.18;;
44068;SDS011;29738;51.234;5.484;2023-02-24T14:09:37;25.80;;;12.00;;
44068;SDS011;29738;51.234;5.484;2023-02-24T14:12:15;25.10;;;14.13;;
44068;SDS011;29738;51.234;5.484;2023-02-24T14:14:44;22.70;;;13.02;;
44068;SDS011;29738;51.234;5.484;2023-02-24T14:17:52;27.00;;;13.52;;
44068;SDS011;29738;51.234;5.484;2023-02-24T14:22:43;35.58;;;16.45;;
44068;SDS011;29738;51.234;5.484;2023-02-24T14:25:19;22.52;;;9.95;;
44068;SDS011;29738;51.234;5.484;2023-02-24T14:27:48;34.47;;;21.70;;
44068;SDS011;29738;51.234;5.484;2023-02-24T14:32:51;19.42;;;10.43;;
44068;SDS011;29738;51.234;5.484;2023-02-24T14:35:19;24.13;;;15.60;;
44068;SDS011;29738;51.234;5.484;2023-02-24T14:37:51;19.27;;;9.55;;
44068;SDS011;29738;51.234;5.484;2023-02-24T14:40:17;17.52;;;9.05;;
44068;SDS011;29738;51.234;5.484;2023-02-24T14:42:46;18.77;;;10.32;;
44068;SDS011;29738;51.234;5.484;2023-02-24T14:45:24;20.58;;;11.77;;
44068;SDS011;29738;51.234;5.484;2023-02-24T14:47:52;19.30;;;9.13;;
44068;SDS011;29738;51.234;5.484;2023-02-24T14:50:21;19.70;;;10.18;;
44068;SDS011;29738;51.234;5.484;2023-02-24T14:52:52;15.30;;;9.07;;
44068;SDS011;29738;51.234;5.484;2023-02-24T14:55:26;11.55;;;6.82;;
44068;SDS011;29738;51.234;5.484;2023-02-24T15:00:47;15.55;;;8.85;;
44068;SDS011;29738;51.234;5.484;2023-02-24T15:05:44;15.60;;;7.43;;
44068;SDS011;29738;51.234;5.484;2023-02-24T15:10:50;15.40;;;8.18;;
44068;SDS011;29738;51.234;5.484;2023-02-24T15:13:19;26.15;;;12.23;;
44068;SDS011;29738;51.234;5.484;2023-02-24T15:16:04;15.35;;;7.05;;
44068;SDS011;29738;51.234;5.484;2023-02-24T15:18:41;20.70;;;11.82;;
44068;SDS011;29738;51.234;5.484;2023-02-24T15:21:14;14.00;;;8.75;;
44068;SDS011;29738;51.234;5.484;2023-02-24T15:24:02;17.20;;;9.63;;
44068;SDS011;29738;51.234;5.484;2023-02-24T15:26:37;22.27;;;12.10;;
44068;SDS011;29738;51.234;5.484;2023-02-24T15:29:23;21.67;;;12.10;;
44068;SDS011;29738;51.234;5.484;2023-02-24T15:31:52;15.75;;;9.35;;
44068;SDS011;29738;51.234;5.484;2023-02-24T15:34:20;21.40;;;10.82;;
44068;SDS011;29738;51.234;5.484;2023-02-24T15:36:50;18.10;;;7.85;;
44068;SDS011;29738;51.234;5.484;2023-02-24T15:39:21;17.27;;;9.45;;
44068;SDS011;29738;51.234;5.484;2023-02-24T15:41:49;15.88;;;9.75;;
44068;SDS011;29738;51.234;5.484;2023-02-24T15:44:29;16.63;;;8.85;;
44068;SDS011;29738;51.234;5.484;2023-02-24T15:46:57;18.02;;;9.20;;
44068;SDS011;29738;51.234;5.484;2023-02-24T15:49:24;17.70;;;9.68;;
44068;SDS011;29738;51.234;5.484;2023-02-24T15:51:51;18.38;;;10.13;;
44068;SDS011;29738;51.234;5.484;2023-02-24T15:54:27;21.50;;;12.85;;
44068;SDS011;29738;51.234;5.484;2023-02-24T15:56:58;23.70;;;14.45;;
44068;SDS011;29738;51.234;5.484;2023-02-24T15:59:25;18.92;;;10.05;;
44068;SDS011;29738;51.234;5.484;2023-02-24T16:01:51;21.02;;;10.15;;
44068;SDS011;29738;51.234;5.484;2023-02-24T16:04:17;21.55;;;9.85;;
44068;SDS011;29738;51.234;5.484;2023-02-24T16:06:45;16.63;;;8.38;;
44068;SDS011;29738;51.234;5.484;2023-02-24T16:09:39;31.63;;;17.90;;
44068;SDS011;29738;51.234;5.484;2023-02-24T16:12:12;27.73;;;17.23;;
44068;SDS011;29738;51.234;5.484;2023-02-24T16:14:41;21.23;;;10.50;;
44068;SDS011;29738;51.234;5.484;2023-02-24T16:17:15;22.55;;;9.82;;
44068;SDS011;29738;51.234;5.484;2023-02-24T16:19:48;15.25;;;8.32;;
44068;SDS011;29738;51.234;5.484;2023-02-24T16:22:13;26.23;;;10.00;;
44068;SDS011;29738;51.234;5.484;2023-02-24T16:24:39;24.40;;;8.13;;
44068;SDS011;29738;51.234;5.484;2023-02-24T16:27:09;16.95;;;7.57;;
44068;SDS011;29738;51.234;5.484;2023-02-24T16:29:43;21.50;;;8.73;;
44068;SDS011;29738;51.234;5.484;2023-02-24T16:32:10;20.35;;;8.88;;
44068;SDS011;29738;51.234;5.484;2023-02-24T16:34:37;15.95;;;8.23;;
44068;SDS011;29738;51.234;5.484;2023-02-24T16:37:03;15.85;;;9.00;;
44068;SDS011;29738;51.234;5.484;2023-02-24T16:39:44;16.98;;;7.85;;
44068;SDS011;29738;51.234;5.484;2023-02-24T16:42:11;17.58;;;9.27;;
44068;SDS011;29738;51.234;5.484;2023-02-24T16:44:37;16.65;;;7.35;;
44068;SDS011;29738;51.234;5.484;2023-02-24T16:47:04;16.92;;;7.57;;
44068;SDS011;29738;51.234;5.484;2023-02-24T16:49:31;16.05;;;7.15;;
44068;SDS011;29738;51.234;5.484;2023-02-24T16:51:57;14.05;;;6.05;;
44068;SDS011;29738;51.234;5.484;2023-02-24T16:54:23;16.02;;;7.15;;
44068;SDS011;29738;51.234;5.484;2023-02-24T16:56:53;16.75;;;8.65;;
44068;SDS011;29738;51.234;5.484;2023-02-24T16:59:20;18.00;;;7.15;;
44068;SDS011;29738;51.234;5.484;2023-02-24T17:01:46;21.23;;;6.18;;
44068;SDS011;29738;51.234;5.484;2023-02-24T17:04:12;16.00;;;7.97;;
44068;SDS011;29738;51.234;5.484;2023-02-24T17:06:38;18.38;;;5.97;;
44068;SDS011;29738;51.234;5.484;2023-02-24T17:09:05;10.75;;;5.05;;
44068;SDS011;29738;51.234;5.484;2023-02-24T17:11:31;11.13;;;4.45;;
44068;SDS011;29738;51.234;5.484;2023-02-24T17:13:57;5.43;;;2.22;;
44068;SDS011;29738;51.234;5.484;2023-02-24T17:16:23;9.68;;;4.55;;
44068;SDS011;29738;51.234;5.484;2023-02-24T17:18:49;7.43;;;2.97;;
44068;SDS011;29738;51.234;5.484;2023-02-24T17:21:15;10.82;;;3.05;;
44068;SDS011;29738;51.234;5.484;2023-02-24T17:23:42;20.60;;;4.28;;
44068;SDS011;29738;51.234;5.484;2023-02-24T17:26:09;14.73;;;3.22;;
44068;SDS011;29738;51.234;5.484;2023-02-24T17:28:39;11.18;;;2.90;;
44068;SDS011;29738;51.234;5.484;2023-02-24T17:31:05;7.95;;;2.65;;
44068;SDS011;29738;51.234;5.484;2023-02-24T17:33:33;15.52;;;3.70;;